createdAt,value
2018-07-17T00:00:49.866Z,45.20
2018-07-17T00:01:49.838Z,45.10
2018-07-17T00:02:49.827Z,45.58
2018-07-17T00:03:49.805Z,45.10
2018-07-17T00:04:49.780Z,45.00
2018-07-17T00:05:49.824Z,45.10
2018-07-17T00:06:49.741Z,45.29
2018-07-17T00:07:49.717Z,45.29
2018-07-17T00:08:49.697Z,45.29
2018-07-17T00:09:49.672Z,45.48
2018-07-17T00:10:49.652Z,45.58
2018-07-17T00:11:49.639Z,45.65
2018-07-17T00:12:49.683Z,45.58
2018-07-17T00:13:49.591Z,46.06
2018-07-17T00:14:49.574Z,46.73
2018-07-17T00:15:49.556Z,46.23
2018-07-17T00:16:49.531Z,46.33
2018-07-17T00:17:49.511Z,46.73
2018-07-17T00:18:49.494Z,46.52
2018-07-17T00:19:49.468Z,46.35
2018-07-17T00:20:49.445Z,46.06
2018-07-17T00:21:49.423Z,45.77
2018-07-17T00:22:49.402Z,45.68
2018-07-17T00:23:49.390Z,45.20
2018-07-17T00:24:49.365Z,45.10
2018-07-17T00:25:49.340Z,45.10
2018-07-17T00:26:49.320Z,45.58
2018-07-17T00:27:49.302Z,45.87
2018-07-17T00:28:49.285Z,45.77
2018-07-17T00:29:49.247Z,45.87
2018-07-17T00:30:49.227Z,46.35
2018-07-17T00:31:49.219Z,46.83
2018-07-17T00:32:49.191Z,46.83
2018-07-17T00:33:49.180Z,46.73
2018-07-17T00:34:49.161Z,46.35
2018-07-17T00:35:49.118Z,46.55
2018-07-17T00:36:49.116Z,46.73
2018-07-17T00:37:49.077Z,46.45
2018-07-17T00:38:49.075Z,47.03
2018-07-17T00:39:49.052Z,46.62
2018-07-17T00:40:49.029Z,47.00
2018-07-17T00:41:49.133Z,46.91
2018-07-17T00:42:48.988Z,46.71
2018-07-17T00:43:48.968Z,46.91
2018-07-17T00:44:48.951Z,46.91
2018-07-17T00:45:48.912Z,46.71
2018-07-17T00:46:48.909Z,46.81
2018-07-17T00:47:48.874Z,46.71
2018-07-17T00:48:48.868Z,47.00
2018-07-17T00:49:48.825Z,46.91
2018-07-17T00:50:48.821Z,46.62
2018-07-17T00:51:48.803Z,46.91
2018-07-17T00:52:48.780Z,47.19
2018-07-17T00:53:48.756Z,47.10
2018-07-17T00:54:48.734Z,47.10
2018-07-17T00:55:48.715Z,47.39
2018-07-17T00:56:48.696Z,47.87
2018-07-17T00:57:48.674Z,47.87
2018-07-17T00:58:48.661Z,47.97
2018-07-17T00:59:48.700Z,47.56
2018-07-17T01:00:48.602Z,47.85
2018-07-17T01:01:48.588Z,47.94
2018-07-17T01:02:48.696Z,47.97
2018-07-17T01:03:48.551Z,47.85
2018-07-17T01:04:48.525Z,48.43
2018-07-17T01:05:48.507Z,48.71
2018-07-17T01:06:48.490Z,49.77
2018-07-17T01:07:48.464Z,49.96
2018-07-17T01:08:48.517Z,50.63
2018-07-17T01:09:48.420Z,50.61
2018-07-17T01:10:48.387Z,50.71
2018-07-17T01:11:48.367Z,50.90
2018-07-17T01:12:48.358Z,52.44
2018-07-17T01:13:48.327Z,51.57
2018-07-17T01:14:48.319Z,52.34
2018-07-17T01:15:48.299Z,51.96
2018-07-17T01:16:48.276Z,51.19
2018-07-17T01:17:48.253Z,51.76
2018-07-17T01:18:48.238Z,52.12
2018-07-17T01:19:48.210Z,52.12
2018-07-17T01:20:48.194Z,52.32
2018-07-17T01:21:48.164Z,51.93
2018-07-17T01:22:48.148Z,52.03
2018-07-17T01:23:48.126Z,51.93
2018-07-17T01:24:48.096Z,52.51
2018-07-17T01:25:48.089Z,52.03
2018-07-17T01:26:48.049Z,52.15
2018-07-17T01:27:48.030Z,52.63
2018-07-17T01:28:48.020Z,52.06
2018-07-17T01:29:47.995Z,52.06
2018-07-17T01:30:47.984Z,51.76
2018-07-17T01:31:47.954Z,52.34
2018-07-17T01:32:47.918Z,52.37
2018-07-17T01:33:47.912Z,52.37
2018-07-17T01:34:47.875Z,52.85
2018-07-17T01:35:48.385Z,53.78
2018-07-17T01:36:47.845Z,53.69
2018-07-17T01:37:47.834Z,53.88
2018-07-17T01:38:47.931Z,53.98
2018-07-17T01:39:47.783Z,53.88
2018-07-17T01:40:47.763Z,54.46
2018-07-17T01:41:47.740Z,55.33
2018-07-17T01:42:47.822Z,54.65
2018-07-17T01:43:47.696Z,54.43
2018-07-17T01:44:47.673Z,54.65
2018-07-17T01:45:47.658Z,55.11
2018-07-17T01:46:47.633Z,54.63
2018-07-17T01:47:47.612Z,55.11
2018-07-17T01:48:47.592Z,55.40
2018-07-17T01:49:47.565Z,55.11
2018-07-17T01:50:47.544Z,55.40
2018-07-17T01:51:47.580Z,55.88
2018-07-17T01:52:47.503Z,54.82
2018-07-17T01:53:47.486Z,54.82
2018-07-17T01:54:47.462Z,55.30
2018-07-17T01:55:47.445Z,55.11
2018-07-17T01:56:47.403Z,54.72
2018-07-17T01:57:47.393Z,54.53
2018-07-17T01:58:47.363Z,54.34
2018-07-17T01:59:47.349Z,54.34
2018-07-17T02:00:47.333Z,54.82
2018-07-17T02:01:47.294Z,54.72
2018-07-17T02:02:47.291Z,54.53
2018-07-17T02:03:47.266Z,55.40
2018-07-17T02:04:47.248Z,55.30
2018-07-17T02:05:47.215Z,54.43
2018-07-17T02:06:47.203Z,53.96
2018-07-17T02:07:47.180Z,53.57
2018-07-17T02:08:47.144Z,53.69
2018-07-17T02:09:47.140Z,53.02
2018-07-17T02:10:47.121Z,52.54
2018-07-17T02:11:47.091Z,52.44
2018-07-17T02:12:47.177Z,52.25
2018-07-17T02:13:47.050Z,53.59
2018-07-17T02:14:47.030Z,53.31
2018-07-17T02:15:46.992Z,54.72
2018-07-17T02:16:46.976Z,55.68
2018-07-17T02:17:46.961Z,55.78
2018-07-17T02:18:47.003Z,56.45
2018-07-17T02:19:46.919Z,56.26
2018-07-17T02:20:46.896Z,57.32
2018-07-17T02:21:46.876Z,57.70
2018-07-17T02:22:46.848Z,57.90
2018-07-17T02:23:46.923Z,58.45
2018-07-17T02:24:46.814Z,58.25
2018-07-17T02:25:46.790Z,57.87
2018-07-17T02:26:46.764Z,57.87
2018-07-17T02:27:46.744Z,57.77
2018-07-17T02:28:46.730Z,58.54
2018-07-17T02:29:46.707Z,58.92
2018-07-17T02:30:46.680Z,59.38
2018-07-17T02:31:46.669Z,58.89
2018-07-17T02:32:46.642Z,58.99
2018-07-17T02:33:46.612Z,59.57
2018-07-17T02:34:46.594Z,60.24
2018-07-17T02:35:46.579Z,59.19
2018-07-17T02:36:46.553Z,60.24
2018-07-17T02:37:46.525Z,60.63
2018-07-17T02:38:46.509Z,59.95
2018-07-17T02:39:46.485Z,60.24
2018-07-17T02:40:46.467Z,58.99
2018-07-17T02:41:46.440Z,60.05
2018-07-17T02:42:46.420Z,60.14
2018-07-17T02:43:46.382Z,60.14
2018-07-17T02:44:46.379Z,59.92
2018-07-17T02:45:46.354Z,60.11
2018-07-17T02:46:46.331Z,59.28
2018-07-17T02:47:46.312Z,59.25
2018-07-17T02:48:46.277Z,59.06
2018-07-17T02:49:46.261Z,59.92
2018-07-17T02:50:46.245Z,60.02
2018-07-17T02:51:46.224Z,59.73
2018-07-17T02:52:46.206Z,60.21
2018-07-17T02:53:46.180Z,60.31
2018-07-17T02:54:46.155Z,60.31
2018-07-17T02:55:46.121Z,60.40
2018-07-17T02:56:46.109Z,60.60
2018-07-17T02:57:46.082Z,62.52
2018-07-17T02:58:46.071Z,63.19
2018-07-17T02:59:46.034Z,63.67
2018-07-17T03:00:46.013Z,64.47
2018-07-17T03:01:45.997Z,64.28
2018-07-17T03:02:45.977Z,64.56
2018-07-17T03:03:45.958Z,65.23
2018-07-17T03:04:45.933Z,65.62
2018-07-17T03:05:45.916Z,65.05
2018-07-17T03:06:45.889Z,65.69
2018-07-17T03:07:45.871Z,65.97
2018-07-17T03:08:45.852Z,66.26
2018-07-17T03:09:45.820Z,66.74
2018-07-17T03:10:45.806Z,66.55
2018-07-17T03:11:45.778Z,67.32
2018-07-17T03:12:45.753Z,67.90
2018-07-17T03:13:45.737Z,68.28
2018-07-17T03:14:45.715Z,68.08
2018-07-17T03:15:45.686Z,68.24
2018-07-17T03:16:45.665Z,69.01
2018-07-17T03:17:45.638Z,69.20
2018-07-17T03:18:45.622Z,69.20
2018-07-17T03:19:45.583Z,70.36
2018-07-17T03:20:45.580Z,69.87
2018-07-17T03:21:45.539Z,69.97
2018-07-17T03:22:45.528Z,69.59
2018-07-17T03:23:45.509Z,70.45
2018-07-17T03:24:45.486Z,70.70
2018-07-17T03:25:45.448Z,70.99
2018-07-17T03:26:45.441Z,71.28
2018-07-17T03:27:45.428Z,71.28
2018-07-17T03:28:45.403Z,72.24
2018-07-17T03:29:45.373Z,72.05
2018-07-17T03:30:45.349Z,72.14
2018-07-17T03:31:45.329Z,72.43
2018-07-17T03:32:45.295Z,72.53
2018-07-17T03:33:45.287Z,72.72
2018-07-17T03:34:45.245Z,72.81
2018-07-17T03:35:45.240Z,73.39
2018-07-17T03:36:45.214Z,73.00
2018-07-17T03:37:45.194Z,73.77
2018-07-17T03:38:45.173Z,73.68
2018-07-17T03:39:45.155Z,73.77
2018-07-17T03:40:45.114Z,73.68
2018-07-17T03:41:45.104Z,74.02
2018-07-17T03:42:45.067Z,73.97
2018-07-17T03:43:45.049Z,74.16
2018-07-17T03:44:45.039Z,73.93
2018-07-17T03:45:44.998Z,74.41
2018-07-17T03:46:44.988Z,74.51
2018-07-17T03:47:44.968Z,75.27
2018-07-17T03:48:44.950Z,75.37
2018-07-17T03:49:44.921Z,75.65
2018-07-17T03:50:44.900Z,75.46
2018-07-17T03:51:44.877Z,75.46
2018-07-17T03:52:44.854Z,75.95
2018-07-17T03:53:44.835Z,76.81
2018-07-17T03:54:44.808Z,77.19
2018-07-17T03:55:44.786Z,77.67
2018-07-17T03:56:44.754Z,77.76
2018-07-17T03:57:44.744Z,77.76
2018-07-17T03:58:44.718Z,79.01
2018-07-17T03:59:44.701Z,78.72
2018-07-17T04:00:44.663Z,79.78
2018-07-17T04:01:44.653Z,80.35
2018-07-17T04:02:44.702Z,81.22
2018-07-17T04:03:44.602Z,81.31
2018-07-17T04:04:44.577Z,82.08
2018-07-17T04:05:44.557Z,81.98
2018-07-17T04:06:44.527Z,82.08
2018-07-17T04:07:44.498Z,83.23
2018-07-17T04:08:44.493Z,83.23
2018-07-17T04:09:44.468Z,82.56
2018-07-17T04:10:44.439Z,83.61
2018-07-17T04:11:44.410Z,84.77
2018-07-17T04:12:44.392Z,84.25
2018-07-17T04:13:44.358Z,84.05
2018-07-17T04:14:44.350Z,84.53
2018-07-17T04:15:44.327Z,85.11
2018-07-17T04:16:44.307Z,85.21
2018-07-17T04:17:44.269Z,85.30
2018-07-17T04:18:44.386Z,85.49
2018-07-17T04:19:44.242Z,85.21
2018-07-17T04:20:44.214Z,85.68
2018-07-17T04:21:44.188Z,85.88
2018-07-17T04:22:44.166Z,85.97
2018-07-17T04:23:44.138Z,85.58
2018-07-17T04:24:44.209Z,86.35
2018-07-17T04:25:44.100Z,86.07
2018-07-17T04:26:44.078Z,87.02
2018-07-17T04:27:44.047Z,86.16
2018-07-17T04:28:44.015Z,86.64
2018-07-17T04:29:44.049Z,86.45
2018-07-17T04:30:43.979Z,86.83
2018-07-17T04:31:44.012Z,87.31
2018-07-17T04:32:43.919Z,87.31
2018-07-17T04:33:43.912Z,87.21
2018-07-17T04:34:43.887Z,87.21
2018-07-17T04:35:43.871Z,87.88
2018-07-17T04:36:43.840Z,87.79
2018-07-17T04:37:43.816Z,87.79
2018-07-17T04:38:43.798Z,87.60
2018-07-17T04:39:43.771Z,87.98
2018-07-17T04:40:43.750Z,88.17
2018-07-17T04:41:43.727Z,87.98
2018-07-17T04:42:43.702Z,88.94
2018-07-17T04:43:43.677Z,88.56
2018-07-17T04:44:43.654Z,88.65
2018-07-17T04:45:43.633Z,89.42
2018-07-17T04:46:43.706Z,89.42
2018-07-17T04:47:43.587Z,88.99
2018-07-17T04:48:43.561Z,89.37
2018-07-17T04:49:43.546Z,89.37
2018-07-17T04:50:43.628Z,89.57
2018-07-17T04:51:43.495Z,89.95
2018-07-17T04:52:43.464Z,90.33
2018-07-17T04:53:43.491Z,89.86
2018-07-17T04:54:43.426Z,90.23
2018-07-17T04:55:43.394Z,90.62
2018-07-17T04:56:43.376Z,90.91
2018-07-17T04:57:43.352Z,91.00
2018-07-17T04:58:43.329Z,91.77
2018-07-17T04:59:43.307Z,91.77
2018-07-17T05:00:43.285Z,91.77
2018-07-17T05:01:43.309Z,92.25
2018-07-17T05:02:43.241Z,91.86
2018-07-17T05:03:43.222Z,91.96
2018-07-17T05:04:43.174Z,92.06
2018-07-17T05:05:43.162Z,92.25
2018-07-17T05:06:43.128Z,92.06
2018-07-17T05:07:43.126Z,92.35
2018-07-17T05:08:43.096Z,92.54
2018-07-17T05:09:43.073Z,92.35
2018-07-17T05:10:43.044Z,92.35
2018-07-17T05:11:43.025Z,92.92
2018-07-17T05:12:43.057Z,92.44
2018-07-17T05:13:42.976Z,92.92
2018-07-17T05:14:42.954Z,93.11
2018-07-17T05:15:42.929Z,93.02
2018-07-17T05:16:42.936Z,92.63
2018-07-17T05:17:42.885Z,92.54
2018-07-17T05:18:42.858Z,92.63
2018-07-17T05:19:42.834Z,92.63
2018-07-17T05:20:42.796Z,92.54
2018-07-17T05:21:42.811Z,92.92
2018-07-17T05:22:42.780Z,93.11
2018-07-17T05:23:42.744Z,92.73
2018-07-17T05:24:42.707Z,93.11
2018-07-17T05:25:42.682Z,92.73
2018-07-17T05:26:42.675Z,92.97
2018-07-17T05:27:42.645Z,92.82
2018-07-17T05:28:42.621Z,93.16
2018-07-17T05:29:42.596Z,92.78
2018-07-17T05:30:42.571Z,92.68
2018-07-17T05:31:42.541Z,93.07
2018-07-17T05:32:42.532Z,92.97
2018-07-17T05:33:42.506Z,93.64
2018-07-17T05:34:42.481Z,94.12
2018-07-17T05:35:42.460Z,93.54
2018-07-17T05:36:42.437Z,93.54
2018-07-17T05:37:42.407Z,93.26
2018-07-17T05:38:42.384Z,94.12
2018-07-17T05:39:42.368Z,93.64
2018-07-17T05:40:42.343Z,93.35
2018-07-17T05:41:42.317Z,93.45
2018-07-17T05:42:42.299Z,93.83
2018-07-17T05:43:42.272Z,94.12
2018-07-17T05:44:42.250Z,94.21
2018-07-17T05:45:42.223Z,94.50
2018-07-17T05:46:42.184Z,93.93
2018-07-17T05:47:42.178Z,94.02
2018-07-17T05:48:42.154Z,94.40
2018-07-17T05:49:42.131Z,94.79
2018-07-17T05:50:42.090Z,94.98
2018-07-17T05:51:42.066Z,94.79
2018-07-17T05:52:42.061Z,94.50
2018-07-17T05:53:42.035Z,94.50
2018-07-17T05:54:42.016Z,94.60
2018-07-17T05:55:41.984Z,94.40
2018-07-17T05:56:41.963Z,94.40
2018-07-17T05:57:41.934Z,94.89
2018-07-17T05:58:41.897Z,94.60
2018-07-17T05:59:41.896Z,94.69
2018-07-17T06:00:41.867Z,94.69
2018-07-17T06:01:41.843Z,94.79
2018-07-17T06:02:41.807Z,94.60
2018-07-17T06:03:41.800Z,94.40
2018-07-17T06:04:41.778Z,94.60
2018-07-17T06:05:41.752Z,94.60
2018-07-17T06:06:41.727Z,94.60
2018-07-17T06:07:41.705Z,94.69
2018-07-17T06:08:41.679Z,94.69
2018-07-17T06:09:41.654Z,94.60
2018-07-17T06:10:41.629Z,94.50
2018-07-17T06:11:41.597Z,94.79
2018-07-17T06:12:41.589Z,94.40
2018-07-17T06:13:41.557Z,94.69
2018-07-17T06:14:41.533Z,94.60
2018-07-17T06:15:41.499Z,94.89
2018-07-17T06:16:41.490Z,94.40
2018-07-17T06:17:41.456Z,94.50
2018-07-17T06:18:41.523Z,94.50
2018-07-17T06:19:41.418Z,94.79
2018-07-17T06:20:41.400Z,94.69
2018-07-17T06:21:41.377Z,94.69
2018-07-17T06:22:41.346Z,94.69
2018-07-17T06:23:41.329Z,95.27
2018-07-17T06:24:41.304Z,94.60
2018-07-17T06:25:41.261Z,95.17
2018-07-17T06:26:41.254Z,94.60
2018-07-17T06:27:41.214Z,94.50
2018-07-17T06:28:41.192Z,95.17
2018-07-17T06:29:41.188Z,95.12
2018-07-17T06:30:41.160Z,95.31
2018-07-17T06:31:41.131Z,94.93
2018-07-17T06:32:41.107Z,95.31
2018-07-17T06:33:41.085Z,95.51
2018-07-17T06:34:41.065Z,95.98
2018-07-17T06:35:41.041Z,96.08
2018-07-17T06:36:41.006Z,95.79
2018-07-17T06:37:40.988Z,96.56
2018-07-17T06:38:40.953Z,96.37
2018-07-17T06:39:40.928Z,96.66
2018-07-17T06:40:40.924Z,96.27
2018-07-17T06:41:40.895Z,96.37
2018-07-17T06:42:40.882Z,96.37
2018-07-17T06:43:40.846Z,96.47
2018-07-17T06:44:40.968Z,96.47
2018-07-17T06:45:40.802Z,96.47
2018-07-17T06:46:40.779Z,96.27
2018-07-17T06:47:40.751Z,96.56
2018-07-17T06:48:40.726Z,96.37
2018-07-17T06:49:40.706Z,96.66
2018-07-17T06:50:40.698Z,96.56
2018-07-17T06:51:40.655Z,96.56
2018-07-17T06:52:40.637Z,95.98
2018-07-17T06:53:40.614Z,96.08
2018-07-17T06:54:40.588Z,95.89
2018-07-17T06:55:40.565Z,95.22
2018-07-17T06:56:40.547Z,95.12
2018-07-17T06:57:40.522Z,95.31
2018-07-17T06:58:40.490Z,95.22
2018-07-17T06:59:40.464Z,95.12
2018-07-17T07:00:40.429Z,95.31
2018-07-17T07:01:40.416Z,95.12
2018-07-17T07:02:40.381Z,95.22
2018-07-17T07:03:40.372Z,94.93
2018-07-17T07:04:40.344Z,95.12
2018-07-17T07:05:40.326Z,95.41
2018-07-17T07:06:40.301Z,95.41
2018-07-17T07:07:40.273Z,95.41
2018-07-17T07:08:40.256Z,95.70
2018-07-17T07:09:40.231Z,95.31
2018-07-17T07:10:40.207Z,95.22
2018-07-17T07:11:40.181Z,95.12
2018-07-17T07:12:40.157Z,94.55
2018-07-17T07:13:40.133Z,94.65
2018-07-17T07:14:40.110Z,94.55
2018-07-17T07:15:40.080Z,94.65
2018-07-17T07:16:40.043Z,94.36
2018-07-17T07:17:40.040Z,94.36
2018-07-17T07:18:40.012Z,94.65
2018-07-17T07:19:39.989Z,94.55
2018-07-17T07:20:39.968Z,94.26
2018-07-17T07:21:39.931Z,94.55
2018-07-17T07:22:39.922Z,94.55
2018-07-17T07:23:39.892Z,94.36
2018-07-17T07:24:39.869Z,94.45
2018-07-17T07:25:39.847Z,94.45
2018-07-17T07:26:39.833Z,94.36
2018-07-17T07:27:39.804Z,94.45
2018-07-17T07:28:39.776Z,94.36
2018-07-17T07:29:39.758Z,94.55
2018-07-17T07:30:39.734Z,94.55
2018-07-17T07:31:39.704Z,94.45
2018-07-17T07:32:39.670Z,94.26
2018-07-17T07:33:39.656Z,94.36
2018-07-17T07:34:39.631Z,94.60
2018-07-17T07:35:39.609Z,94.36
2018-07-17T07:36:39.585Z,94.21
2018-07-17T07:37:39.556Z,93.74
2018-07-17T07:38:39.544Z,94.21
2018-07-17T07:39:39.516Z,93.83
2018-07-17T07:40:39.492Z,93.35
2018-07-17T07:41:39.455Z,93.64
2018-07-17T07:42:39.476Z,93.45
2018-07-17T07:43:39.420Z,93.45
2018-07-17T07:44:39.399Z,93.54
2018-07-17T07:45:39.371Z,93.26
2018-07-17T07:46:39.348Z,93.54
2018-07-17T07:47:39.322Z,93.45
2018-07-17T07:48:39.306Z,93.54
2018-07-17T07:49:39.271Z,93.35
2018-07-17T07:50:39.239Z,93.64
2018-07-17T07:51:39.212Z,93.74
2018-07-17T07:52:39.209Z,94.12
2018-07-17T07:53:39.181Z,94.45
2018-07-17T07:54:39.160Z,94.36
2018-07-17T07:55:39.165Z,94.69
2018-07-17T07:56:39.110Z,94.36
2018-07-17T07:57:39.154Z,95.03
2018-07-17T07:58:39.069Z,94.84
2018-07-17T07:59:39.034Z,95.41
2018-07-17T08:00:39.017Z,95.61
2018-07-17T08:01:38.988Z,96.08
2018-07-17T08:02:38.969Z,96.84
2018-07-17T08:03:38.997Z,96.27
2018-07-17T08:04:38.922Z,96.84
2018-07-17T08:05:38.879Z,96.75
2018-07-17T08:06:38.859Z,96.94
2018-07-17T08:07:38.850Z,96.94
2018-07-17T08:08:38.809Z,96.84
2018-07-17T08:09:38.803Z,96.94
2018-07-17T08:10:38.778Z,97.04
2018-07-17T08:11:38.777Z,96.94
2018-07-17T08:12:38.728Z,97.52
2018-07-17T08:13:38.701Z,97.04
2018-07-17T08:14:38.679Z,97.33
2018-07-17T08:15:38.660Z,96.94
2018-07-17T08:16:38.633Z,97.33
2018-07-17T08:17:38.615Z,96.66
2018-07-17T08:18:38.588Z,97.42
2018-07-17T08:19:38.565Z,97.52
2018-07-17T08:20:38.524Z,97.52
2018-07-17T08:21:38.513Z,97.61
2018-07-17T08:22:38.489Z,98.00
2018-07-17T08:23:38.463Z,97.52
2018-07-17T08:24:38.423Z,97.71
2018-07-17T08:25:38.415Z,97.80
2018-07-17T08:26:38.389Z,97.61
2018-07-17T08:27:38.373Z,97.33
2018-07-17T08:28:38.330Z,97.33
2018-07-17T08:29:38.342Z,96.94
2018-07-17T08:30:38.419Z,97.04
2018-07-17T08:31:38.259Z,96.84
2018-07-17T08:32:38.249Z,96.47
2018-07-17T08:33:38.368Z,96.66
2018-07-17T08:34:38.205Z,96.66
2018-07-17T08:35:38.236Z,96.66
2018-07-17T08:36:38.151Z,96.47
2018-07-17T08:37:38.113Z,96.94
2018-07-17T08:38:38.103Z,97.04
2018-07-17T08:39:38.078Z,97.04
2018-07-17T08:40:38.058Z,96.84
2018-07-17T08:41:38.031Z,97.13
2018-07-17T08:42:38.013Z,97.23
2018-07-17T08:43:38.053Z,97.13
2018-07-17T08:44:37.947Z,97.33
2018-07-17T08:45:37.934Z,97.37
2018-07-17T08:46:37.916Z,97.18
2018-07-17T08:47:37.877Z,97.47
2018-07-17T08:48:37.866Z,97.85
2018-07-17T08:49:37.827Z,98.04
2018-07-17T08:50:37.818Z,98.04
2018-07-17T08:51:37.793Z,98.24
2018-07-17T08:52:37.770Z,98.52
2018-07-17T08:53:37.745Z,98.43
2018-07-17T08:54:37.772Z,98.24
2018-07-17T08:55:37.697Z,98.33
2018-07-17T08:56:37.678Z,98.61
2018-07-17T08:57:37.652Z,98.81
2018-07-17T08:58:37.621Z,99.10
2018-07-17T08:59:37.598Z,99.19
2018-07-17T09:00:37.584Z,99.00
2018-07-17T09:01:37.559Z,99.00
2018-07-17T09:02:37.527Z,99.29
2018-07-17T09:03:37.508Z,98.71
2018-07-17T09:04:37.477Z,99.10
2018-07-17T09:05:37.464Z,99.10
2018-07-17T09:06:37.435Z,99.19
2018-07-17T09:07:37.408Z,99.19
2018-07-17T09:08:37.382Z,99.00
2018-07-17T09:09:37.370Z,99.00
2018-07-17T09:10:37.338Z,99.10
2018-07-17T09:11:37.310Z,99.67
2018-07-17T09:12:37.288Z,99.96
2018-07-17T09:13:37.261Z,99.86
2018-07-17T09:14:37.246Z,99.48
2018-07-17T09:15:37.224Z,99.67
2018-07-17T09:16:37.193Z,98.90
2018-07-17T09:17:37.150Z,99.00
2018-07-17T09:18:37.144Z,98.81
2018-07-17T09:19:37.121Z,98.90
2018-07-17T09:20:37.079Z,99.10
2018-07-17T09:21:37.163Z,99.00
2018-07-17T09:22:37.045Z,98.90
2018-07-17T09:23:37.019Z,98.90
2018-07-17T09:24:36.994Z,99.29
2018-07-17T09:25:36.962Z,99.99
2018-07-17T09:26:36.937Z,99.99
2018-07-17T09:27:36.929Z,99.99
2018-07-17T09:28:36.900Z,99.96
2018-07-17T09:29:36.990Z,99.99
2018-07-17T09:30:36.853Z,99.99
2018-07-17T09:31:36.836Z,99.99
2018-07-17T09:32:36.816Z,99.99
2018-07-17T09:33:36.827Z,99.99
2018-07-17T09:34:36.760Z,99.99
2018-07-17T09:35:36.737Z,99.99
2018-07-17T09:36:36.706Z,99.99
2018-07-17T09:37:36.681Z,99.99
2018-07-17T09:38:36.671Z,99.99
2018-07-17T09:39:36.619Z,99.99
2018-07-17T09:40:36.614Z,99.99
2018-07-17T09:41:36.576Z,99.99
2018-07-17T09:42:36.569Z,99.99
2018-07-17T09:43:36.535Z,99.99
2018-07-17T09:44:36.512Z,99.99
2018-07-17T09:45:36.488Z,99.99
2018-07-17T09:46:36.465Z,99.99
2018-07-17T09:47:36.438Z,99.99
2018-07-17T09:48:36.417Z,99.99
2018-07-17T09:49:36.400Z,99.99
2018-07-17T09:50:36.365Z,99.99
2018-07-17T09:51:36.553Z,99.99
2018-07-17T09:52:36.314Z,99.99
2018-07-17T09:53:36.295Z,99.99
2018-07-17T09:54:36.267Z,99.99
2018-07-17T09:55:36.244Z,99.99
2018-07-17T09:56:36.214Z,99.99
2018-07-17T09:57:36.193Z,99.99
2018-07-17T09:58:36.174Z,99.99
2018-07-17T09:59:36.146Z,99.99
2018-07-17T10:00:36.124Z,99.99
2018-07-17T10:01:36.098Z,99.99
2018-07-17T10:02:36.072Z,99.99
2018-07-17T10:03:36.053Z,99.99
2018-07-17T10:04:36.176Z,99.72
2018-07-17T10:05:36.003Z,98.66
2018-07-17T10:06:35.957Z,98.66
2018-07-17T10:07:35.957Z,98.52
2018-07-17T10:08:35.914Z,97.61
2018-07-17T10:09:35.955Z,97.56
2018-07-17T10:10:35.862Z,96.99
2018-07-17T10:11:35.861Z,96.70
2018-07-17T10:12:35.834Z,96.03
2018-07-17T10:13:35.796Z,95.56
2018-07-17T10:14:35.852Z,94.89
2018-07-17T10:15:35.747Z,94.60
2018-07-17T10:16:35.736Z,94.79
2018-07-17T10:17:35.714Z,94.69
2018-07-17T10:18:35.681Z,94.21
2018-07-17T10:19:35.670Z,93.74
2018-07-17T10:20:35.650Z,93.93
2018-07-17T10:21:35.601Z,93.30
2018-07-17T10:22:35.600Z,93.88
2018-07-17T10:23:35.578Z,93.49
2018-07-17T10:24:35.554Z,93.02
2018-07-17T10:25:35.512Z,92.73
2018-07-17T10:26:35.528Z,92.35
2018-07-17T10:27:35.489Z,92.35
2018-07-17T10:28:35.440Z,92.15
2018-07-17T10:29:35.439Z,91.63
2018-07-17T10:30:35.399Z,91.43
2018-07-17T10:31:35.393Z,91.05
2018-07-17T10:32:35.365Z,90.47
2018-07-17T10:33:35.342Z,90.19
2018-07-17T10:34:35.321Z,90.38
2018-07-17T10:35:35.299Z,90.42
2018-07-17T10:36:35.264Z,89.56
2018-07-17T10:37:35.262Z,89.56
2018-07-17T10:38:35.232Z,88.98
2018-07-17T10:39:35.212Z,89.08
2018-07-17T10:40:35.174Z,89.47
2018-07-17T10:41:35.165Z,88.51
2018-07-17T10:42:35.143Z,89.18
2018-07-17T10:43:35.126Z,88.12
2018-07-17T10:44:35.098Z,88.02
2018-07-17T10:45:35.077Z,87.59
2018-07-17T10:46:35.060Z,87.78
2018-07-17T10:47:35.041Z,86.96
2018-07-17T10:48:35.017Z,86.10
2018-07-17T10:49:34.989Z,85.33
2018-07-17T10:50:34.968Z,84.47
2018-07-17T10:51:34.951Z,84.41
2018-07-17T10:52:34.925Z,83.93
2018-07-17T10:53:34.909Z,83.26
2018-07-17T10:54:34.883Z,83.54
2018-07-17T10:55:34.850Z,82.40
2018-07-17T10:56:34.843Z,82.15
2018-07-17T10:57:34.817Z,81.96
2018-07-17T10:58:34.805Z,81.19
2018-07-17T10:59:34.783Z,81.09
2018-07-17T11:00:34.763Z,79.88
2018-07-17T11:01:34.740Z,79.50
2018-07-17T11:02:34.721Z,79.15
2018-07-17T11:03:34.704Z,79.15
2018-07-17T11:04:34.669Z,77.81
2018-07-17T11:05:34.773Z,77.75
2018-07-17T11:06:34.646Z,76.78
2018-07-17T11:07:34.626Z,76.01
2018-07-17T11:08:34.680Z,75.96
2018-07-17T11:09:34.583Z,75.48
2018-07-17T11:10:34.560Z,74.71
2018-07-17T11:11:34.552Z,74.71
2018-07-17T11:12:34.545Z,74.51
2018-07-17T11:13:34.509Z,74.07
2018-07-17T11:14:34.486Z,73.01
2018-07-17T11:15:34.470Z,72.47
2018-07-17T11:16:34.437Z,71.31
2018-07-17T11:17:34.431Z,71.31
2018-07-17T11:18:34.415Z,70.98
2018-07-17T11:19:34.377Z,72.49
2018-07-17T11:20:34.382Z,72.97
2018-07-17T11:21:34.351Z,73.07
2018-07-17T11:22:34.339Z,73.26
2018-07-17T11:23:34.320Z,73.22
2018-07-17T11:24:34.287Z,73.80
2018-07-17T11:25:34.285Z,74.48
2018-07-17T11:26:34.273Z,74.57
2018-07-17T11:27:34.233Z,74.82
2018-07-17T11:28:34.228Z,75.02
2018-07-17T11:29:34.221Z,75.31
2018-07-17T11:30:34.195Z,76.01
2018-07-17T11:31:34.183Z,74.57
2018-07-17T11:32:34.158Z,74.76
2018-07-17T11:33:34.135Z,74.09
2018-07-17T11:34:34.121Z,73.74
2018-07-17T11:35:34.102Z,73.46
2018-07-17T11:36:34.083Z,73.07
2018-07-17T11:37:34.069Z,72.78
2018-07-17T11:38:34.094Z,72.39
2018-07-17T11:39:34.025Z,72.49
2018-07-17T11:40:34.001Z,72.11
2018-07-17T11:41:33.995Z,72.11
2018-07-17T11:42:33.978Z,71.95
2018-07-17T11:43:33.960Z,71.28
2018-07-17T11:44:33.949Z,71.08
2018-07-17T11:45:33.915Z,70.98
2018-07-17T11:46:33.899Z,71.24
2018-07-17T11:47:33.876Z,71.18
2018-07-17T11:48:33.871Z,69.38
2018-07-17T11:49:33.859Z,69.38
2018-07-17T11:50:33.834Z,68.65
2018-07-17T11:51:33.818Z,68.39
2018-07-17T11:52:33.808Z,66.49
2018-07-17T11:53:33.790Z,65.50
2018-07-17T11:54:33.778Z,66.36
2018-07-17T11:55:33.753Z,67.23
2018-07-17T11:56:33.738Z,66.33
2018-07-17T11:57:33.701Z,67.33
2018-07-17T11:58:33.708Z,66.11
2018-07-17T11:59:33.726Z,65.43
2018-07-17T12:00:33.671Z,65.82
2018-07-17T12:01:33.648Z,65.20
2018-07-17T12:02:33.618Z,67.20
2018-07-17T12:03:33.619Z,68.35
2018-07-17T12:04:33.589Z,68.42
2018-07-17T12:05:33.618Z,68.23
2018-07-17T12:06:33.554Z,68.35
2018-07-17T12:07:33.553Z,66.17
2018-07-17T12:08:33.519Z,66.62
2018-07-17T12:09:33.519Z,67.10
2018-07-17T12:10:33.487Z,66.85
2018-07-17T12:11:33.488Z,65.69
2018-07-17T12:12:33.482Z,66.52
2018-07-17T12:13:33.452Z,66.08
2018-07-17T12:14:33.426Z,65.43
2018-07-17T12:15:33.421Z,64.76
2018-07-17T12:16:33.405Z,65.30
2018-07-17T12:17:33.383Z,65.30
2018-07-17T12:18:33.377Z,65.53
2018-07-17T12:19:33.345Z,65.14
2018-07-17T12:20:33.385Z,65.05
2018-07-17T12:21:33.321Z,64.37
2018-07-17T12:22:33.312Z,64.08
2018-07-17T12:23:33.289Z,64.24
2018-07-17T12:24:33.277Z,64.24
2018-07-17T12:25:33.261Z,65.50
2018-07-17T12:26:33.245Z,64.72
2018-07-17T12:27:33.231Z,64.82
2018-07-17T12:28:33.218Z,64.28
2018-07-17T12:29:33.193Z,64.11
2018-07-17T12:30:33.178Z,63.31
2018-07-17T12:31:33.167Z,63.53
2018-07-17T12:32:33.142Z,62.57
2018-07-17T12:33:33.137Z,63.24
2018-07-17T12:34:33.127Z,62.79
2018-07-17T12:35:33.106Z,61.95
2018-07-17T12:36:33.080Z,61.18
2018-07-17T12:37:33.072Z,62.21
2018-07-17T12:38:33.062Z,62.24
2018-07-17T12:39:33.047Z,61.18
2018-07-17T12:40:33.033Z,61.08
2018-07-17T12:41:33.002Z,60.96
2018-07-17T12:42:33.004Z,61.83
2018-07-17T12:43:32.973Z,62.40
2018-07-17T12:44:32.967Z,62.12
2018-07-17T12:45:32.958Z,61.83
2018-07-17T12:46:32.943Z,62.24
2018-07-17T12:47:32.928Z,61.27
2018-07-17T12:48:32.915Z,60.44
2018-07-17T12:49:32.904Z,59.44
2018-07-17T12:50:32.892Z,60.34
2018-07-17T12:51:32.866Z,60.24
2018-07-17T12:52:32.858Z,59.18